Mears, Virginia
Current Conditions -  °F | °C
As of 10:54 PM on Wednesday 17 Dec 2014 (Local Time) from KWAL Reporting Station
Clear Clear  
Wind Chill: 33°   Ceiling: Unl
Heat Index: 38°   Visibility: 10mi
Dew Point: 32°   Wind: 6mph
Humidity: 79%   Direction: 330°NNW
Pressure: 30.03"   Gusts: NA
Location:  37.86°N, 75.62°W
Report Text: KWAL 180354Z AUTO 33005KT 10SM CLR 03/00 A3003 RMK AO2 SLP166 T00330000
Loading
Personal Weather Stations






























Interactive Weather Map New forecast layout! Learn more

10-Day Weather Forecast

Advertisements
Track Severe Weather on mobile